createdAt,value
2018-03-17T00:02:36.268Z,10.72
2018-03-17T00:17:34.550Z,10.77
2018-03-17T00:32:36.577Z,10.70
2018-03-17T00:47:36.904Z,10.73
2018-03-17T01:02:37.395Z,10.63
2018-03-17T01:17:42.232Z,10.58
2018-03-17T01:32:37.412Z,10.57
2018-03-17T01:47:34.734Z,10.52
2018-03-17T02:02:36.824Z,10.47
2018-03-17T02:17:38.010Z,10.52
2018-03-17T02:32:38.240Z,10.58
2018-03-17T02:47:37.037Z,10.56
2018-03-17T03:02:40.229Z,10.42
2018-03-17T03:17:36.432Z,10.27
2018-03-17T03:32:37.249Z,10.27
2018-03-17T03:47:36.560Z,10.24
2018-03-17T04:17:37.594Z,10.04
2018-03-17T04:32:38.980Z,10.03
2018-03-17T05:47:34.342Z,11.01
2018-03-17T06:02:34.950Z,11.35
2018-03-17T06:17:34.752Z,11.75
2018-03-17T06:32:34.660Z,12.06
2018-03-17T06:47:34.092Z,12.91
2018-03-17T07:02:35.139Z,13.50
2018-03-17T07:17:35.153Z,14.31
2018-03-17T07:32:35.171Z,15.82
2018-03-17T07:47:35.083Z,17.52
2018-03-17T08:02:33.931Z,19.83
2018-03-17T08:17:35.374Z,21.42
2018-03-17T08:32:35.776Z,23.19
2018-03-17T08:47:36.200Z,23.81
2018-03-17T09:02:34.650Z,23.68
2018-03-17T09:17:36.429Z,22.95
2018-03-17T09:32:36.698Z,22.09
2018-03-17T09:47:33.966Z,23.18
2018-03-17T10:02:34.912Z,23.63
2018-03-17T10:17:36.709Z,24.18
2018-03-17T10:32:34.290Z,25.36
2018-03-17T10:47:34.613Z,25.04
2018-03-17T11:02:40.249Z,24.20
2018-03-17T11:17:35.067Z,23.44
2018-03-17T11:32:34.818Z,23.23
2018-03-17T11:47:34.812Z,23.15
2018-03-17T12:02:34.465Z,23.62
2018-03-17T12:17:37.266Z,24.05
2018-03-17T12:32:35.085Z,23.84
2018-03-17T12:47:35.173Z,23.41
2018-03-17T13:02:34.684Z,23.26
2018-03-17T13:17:34.487Z,22.91
2018-03-17T13:32:46.200Z,22.49
2018-03-17T13:47:33.774Z,22.14
2018-03-17T14:02:35.098Z,21.79
2018-03-17T14:17:34.613Z,21.63
2018-03-17T14:32:34.848Z,21.23
2018-03-17T14:47:34.567Z,21.02
2018-03-17T15:02:35.188Z,20.80
2018-03-17T15:17:35.111Z,20.51
2018-03-17T15:32:35.006Z,20.25
2018-03-17T15:47:35.046Z,19.99
2018-03-17T16:02:34.562Z,19.81
2018-03-17T16:17:34.337Z,19.76
2018-03-17T16:32:35.385Z,19.62
2018-03-17T16:47:35.253Z,19.43
2018-03-17T17:02:35.707Z,19.38
2018-03-17T17:17:34.470Z,19.37
2018-03-17T17:32:34.398Z,19.29
2018-03-17T17:47:36.296Z,19.22
2018-03-17T18:02:34.940Z,19.21
2018-03-17T18:17:36.991Z,19.23
2018-03-17T18:32:36.683Z,19.26
2018-03-17T18:47:39.591Z,19.25
2018-03-17T19:02:43.561Z,19.31
2018-03-17T19:17:37.831Z,19.21
2018-03-17T19:32:35.086Z,19.24
2018-03-17T20:02:38.956Z,19.28
2018-03-17T20:17:34.215Z,19.18
2018-03-17T20:32:38.543Z,19.13
2018-03-17T20:47:49.849Z,19.13
2018-03-17T21:02:37.417Z,19.08
2018-03-17T21:17:43.870Z,18.97
2018-03-17T21:32:37.540Z,18.87
2018-03-17T21:47:36.259Z,18.77
2018-03-17T22:02:36.966Z,18.65
2018-03-17T22:32:47.292Z,18.72
2018-03-17T22:47:34.618Z,18.75
2018-03-17T23:02:36.038Z,18.69
2018-03-17T23:17:34.906Z,18.60
2018-03-17T23:32:34.895Z,18.53
2018-03-17T23:47:34.808Z,18.47
